createdAt,value
2023-11-28T00:01:23.624Z,60.40
2023-11-28T00:03:50.207Z,60.67
2023-11-28T00:06:18.792Z,60.38
2023-11-28T00:08:46.347Z,60.41
2023-11-28T00:11:23.905Z,60.67
2023-11-28T00:13:51.588Z,60.38
2023-11-28T00:16:18.735Z,60.67
2023-11-28T00:18:45.504Z,60.57
2023-11-28T00:21:13.356Z,60.60
2023-11-28T00:23:39.865Z,60.90
2023-11-28T00:26:06.566Z,60.65
2023-11-28T00:28:33.408Z,60.67
2023-11-28T00:30:59.957Z,60.50
2023-11-28T00:33:26.457Z,60.46
2023-11-28T00:35:53.121Z,60.45
2023-11-28T00:38:19.684Z,60.63
2023-11-28T00:40:46.276Z,60.53
2023-11-28T00:43:12.851Z,60.65
2023-11-28T00:45:41.264Z,60.50
2023-11-28T00:48:07.857Z,60.49
2023-11-28T00:50:34.407Z,60.85
2023-11-28T00:53:00.955Z,60.39
2023-11-28T00:55:32.625Z,60.45
2023-11-28T00:57:59.240Z,60.34
2023-11-28T01:00:26.594Z,60.49
2023-11-28T01:02:53.403Z,60.56
2023-11-28T01:05:20.587Z,60.75
2023-11-28T01:07:47.607Z,60.52
2023-11-28T01:10:14.420Z,60.48
2023-11-28T01:12:40.894Z,60.42
2023-11-28T01:15:09.250Z,60.61
2023-11-28T01:17:35.819Z,60.67
2023-11-28T01:20:02.875Z,60.71
2023-11-28T01:22:29.901Z,60.54
2023-11-28T01:24:56.530Z,60.37
2023-11-28T01:27:23.033Z,60.53
2023-11-28T01:29:58.833Z,60.51
2023-11-28T01:32:25.320Z,60.68
2023-11-28T01:34:51.882Z,60.53
2023-11-28T01:37:20.463Z,60.25
2023-11-28T01:39:47.042Z,60.44
2023-11-28T01:42:14.287Z,60.06
2023-11-28T01:44:40.768Z,60.54
2023-11-28T01:47:08.149Z,60.60
2023-11-28T01:49:36.642Z,60.21
2023-11-28T01:52:04.300Z,60.27
2023-11-28T01:54:31.967Z,60.29
2023-11-28T01:56:59.147Z,60.10
2023-11-28T01:59:25.780Z,60.18
2023-11-28T02:01:52.626Z,60.42
2023-11-28T02:04:19.309Z,60.21
2023-11-28T02:06:46.706Z,60.37
2023-11-28T02:09:13.306Z,59.96
2023-11-28T02:11:39.823Z,59.98
2023-11-28T02:14:06.375Z,60.05
2023-11-28T02:16:33.093Z,60.34
2023-11-28T02:18:59.700Z,60.28
2023-11-28T02:21:26.244Z,60.47
2023-11-28T02:23:53.082Z,60.16
2023-11-28T02:26:23.840Z,60.18
2023-11-28T02:28:50.780Z,60.26
2023-11-28T02:31:17.652Z,60.32
2023-11-28T02:33:44.329Z,60.20
2023-11-28T02:36:11.283Z,60.37
2023-11-28T02:38:38.050Z,60.11
2023-11-28T02:41:04.661Z,60.04
2023-11-28T02:43:31.881Z,60.12
2023-11-28T02:45:58.746Z,60.12
2023-11-28T02:48:25.721Z,60.32
2023-11-28T02:50:52.497Z,60.13
2023-11-28T02:53:20.727Z,59.88
2023-11-28T02:55:47.257Z,60.16
2023-11-28T02:58:13.758Z,60.14
2023-11-28T03:00:40.277Z,60.17
2023-11-28T03:03:06.914Z,60.06
2023-11-28T03:05:36.573Z,60.22
2023-11-28T03:08:03.365Z,59.97
2023-11-28T03:10:30.047Z,60.09
2023-11-28T03:12:57.701Z,60.16
2023-11-28T03:15:24.400Z,60.12
2023-11-28T03:17:50.892Z,60.25
2023-11-28T03:20:17.522Z,59.94
2023-11-28T03:22:44.118Z,60.07
2023-11-28T03:25:15.017Z,60.42
2023-11-28T03:27:41.560Z,59.90
2023-11-28T03:30:08.666Z,59.90
2023-11-28T03:32:35.305Z,59.73
2023-11-28T03:35:01.946Z,59.66
2023-11-28T03:37:30.952Z,60.06
2023-11-28T03:39:57.467Z,59.78
2023-11-28T03:42:23.902Z,59.77
2023-11-28T03:44:50.664Z,59.92
2023-11-28T03:47:18.045Z,59.84
2023-11-28T03:49:44.633Z,60.26
2023-11-28T03:52:11.129Z,59.98
2023-11-28T03:54:37.612Z,59.70
2023-11-28T03:57:04.288Z,59.95
2023-11-28T03:59:30.737Z,59.84
2023-11-28T04:01:57.344Z,59.83
2023-11-28T04:04:23.872Z,59.72
2023-11-28T04:06:50.395Z,59.58
2023-11-28T04:09:16.906Z,59.97
2023-11-28T04:11:43.433Z,59.59
2023-11-28T04:14:10.006Z,59.80
2023-11-28T04:16:36.639Z,59.86
2023-11-28T04:19:03.278Z,59.41
2023-11-28T04:21:29.726Z,59.83
2023-11-28T04:23:58.209Z,59.79
2023-11-28T04:26:24.706Z,59.50
2023-11-28T04:28:51.202Z,59.57
2023-11-28T04:31:19.624Z,59.62
2023-11-28T04:33:46.751Z,59.43
2023-11-28T04:36:17.711Z,59.29
2023-11-28T04:38:45.203Z,59.56
2023-11-28T04:41:13.330Z,59.68
2023-11-28T04:43:40.207Z,59.62
2023-11-28T04:46:07.239Z,59.54
2023-11-28T04:48:36.598Z,59.54
2023-11-28T04:51:03.298Z,59.73
2023-11-28T04:53:32.331Z,59.43
2023-11-28T04:55:58.904Z,59.57
2023-11-28T04:58:25.393Z,59.28
2023-11-28T05:00:52.034Z,59.82
2023-11-28T05:03:18.773Z,59.44
2023-11-28T05:05:45.520Z,59.24
2023-11-28T05:08:13.053Z,59.43
2023-11-28T05:10:39.698Z,59.65
2023-11-28T05:13:06.354Z,59.52
2023-11-28T05:15:33.147Z,59.34
2023-11-28T05:17:59.881Z,59.28
2023-11-28T05:20:26.490Z,59.42
2023-11-28T05:22:53.047Z,59.12
2023-11-28T05:25:19.942Z,59.44
2023-11-28T05:27:47.318Z,59.32
2023-11-28T05:30:14.269Z,59.47
2023-11-28T05:32:40.890Z,59.53
2023-11-28T05:35:07.710Z,59.50
2023-11-28T05:37:34.297Z,59.29
2023-11-28T05:40:00.774Z,59.49
2023-11-28T05:42:27.652Z,59.35
2023-11-28T05:44:54.277Z,59.26
2023-11-28T05:47:20.923Z,59.53
2023-11-28T05:49:47.568Z,59.37
2023-11-28T05:52:14.138Z,59.50
2023-11-28T05:54:40.683Z,59.24
2023-11-28T05:57:07.241Z,58.97
2023-11-28T05:59:33.693Z,59.08
2023-11-28T06:02:05.407Z,59.26
2023-11-28T06:04:32.634Z,59.04
2023-11-28T06:06:59.396Z,59.17
2023-11-28T06:09:26.694Z,59.34
2023-11-28T06:11:55.038Z,59.21
2023-11-28T06:14:27.766Z,59.12
2023-11-28T06:19:35.522Z,59.36
2023-11-28T06:22:02.063Z,59.19
2023-11-28T06:24:28.526Z,59.28
2023-11-28T06:26:55.244Z,59.13
2023-11-28T06:29:23.317Z,59.36
2023-11-28T06:31:50.125Z,59.18
2023-11-28T06:34:17.038Z,59.29
2023-11-28T06:36:43.552Z,58.82
2023-11-28T06:39:10.043Z,58.98
2023-11-28T06:41:36.515Z,58.92
2023-11-28T06:44:04.422Z,59.09
2023-11-28T06:46:32.166Z,59.11
2023-11-28T06:48:58.834Z,59.06
2023-11-28T06:51:25.404Z,58.71
2023-11-28T06:53:51.891Z,59.26
2023-11-28T06:56:18.452Z,58.84
2023-11-28T06:58:44.937Z,58.87
2023-11-28T07:01:11.935Z,58.87
2023-11-28T07:03:44.541Z,59.04
2023-11-28T07:06:11.668Z,58.78
2023-11-28T07:08:38.272Z,58.65
2023-11-28T07:11:06.897Z,58.79
2023-11-28T07:13:38.971Z,58.82
2023-11-28T07:16:06.012Z,58.98
2023-11-28T07:18:35.941Z,58.93
2023-11-28T07:21:03.907Z,58.76
2023-11-28T07:23:30.932Z,58.92
2023-11-28T07:25:59.480Z,58.86
2023-11-28T07:28:26.238Z,58.91
2023-11-28T07:30:52.992Z,58.97
2023-11-28T07:33:19.928Z,58.89
2023-11-28T07:35:49.670Z,58.81
2023-11-28T07:38:17.543Z,58.51
2023-11-28T07:40:44.958Z,58.69
2023-11-28T07:43:12.726Z,58.91
2023-11-28T07:45:39.357Z,58.65
2023-11-28T07:48:06.284Z,58.46
2023-11-28T07:50:33.047Z,58.68
2023-11-28T07:52:59.695Z,58.51
2023-11-28T07:55:26.179Z,58.77
2023-11-28T07:57:52.705Z,58.49
2023-11-28T08:00:21.566Z,58.61
2023-11-28T08:02:48.501Z,58.25
2023-11-28T08:05:18.297Z,58.29
2023-11-28T08:07:46.514Z,58.68
2023-11-28T08:10:14.569Z,58.51
2023-11-28T08:12:41.019Z,58.60
2023-11-28T08:15:08.480Z,58.86
2023-11-28T08:17:35.511Z,58.87
2023-11-28T08:20:02.635Z,58.65
2023-11-28T08:22:29.199Z,58.48
2023-11-28T08:24:56.963Z,58.60
2023-11-28T08:27:23.469Z,59.11
2023-11-28T08:29:49.990Z,58.74
2023-11-28T08:32:17.306Z,58.61
2023-11-28T08:34:43.855Z,58.98
2023-11-28T08:37:10.644Z,58.71
2023-11-28T08:39:37.123Z,58.87
2023-11-28T08:42:03.864Z,58.79
2023-11-28T08:44:31.951Z,59.07
2023-11-28T08:46:58.824Z,59.04
2023-11-28T08:49:25.705Z,58.96
2023-11-28T08:51:52.409Z,58.92
2023-11-28T08:54:19.023Z,58.98
2023-11-28T08:56:45.518Z,58.68
2023-11-28T08:59:14.076Z,58.73
2023-11-28T09:01:41.194Z,58.68
2023-11-28T09:04:07.758Z,58.56
2023-11-28T09:06:34.303Z,58.50
2023-11-28T09:09:00.915Z,58.68
2023-11-28T09:11:27.532Z,58.93
2023-11-28T09:13:54.036Z,58.68
2023-11-28T09:16:22.260Z,58.53
2023-11-28T09:18:53.138Z,58.53
2023-11-28T09:21:22.805Z,58.68
2023-11-28T09:23:49.438Z,58.53
2023-11-28T09:26:16.108Z,58.61
2023-11-28T09:28:42.568Z,58.50
2023-11-28T09:31:09.105Z,58.17
2023-11-28T09:33:36.448Z,58.46
2023-11-28T09:36:03.071Z,58.60
2023-11-28T09:38:32.938Z,58.43
2023-11-28T09:40:59.681Z,58.47
2023-11-28T09:43:26.730Z,58.40
2023-11-28T09:46:02.737Z,58.50
2023-11-28T09:48:31.127Z,58.45
2023-11-28T09:51:01.050Z,58.92
2023-11-28T09:53:30.320Z,58.51
2023-11-28T09:56:00.481Z,58.45
2023-11-28T09:58:28.688Z,58.56
2023-11-28T10:01:00.110Z,58.57
2023-11-28T10:03:27.366Z,58.40
2023-11-28T10:05:56.350Z,58.62
2023-11-28T10:08:27.898Z,58.44
2023-11-28T10:10:57.786Z,58.34
2023-11-28T10:13:25.843Z,58.41
2023-11-28T10:15:55.512Z,58.42
2023-11-28T10:18:22.319Z,58.56
2023-11-28T10:20:49.303Z,58.59
2023-11-28T10:23:18.975Z,58.25
2023-11-28T10:25:45.639Z,58.68
2023-11-28T10:28:18.642Z,58.34
2023-11-28T10:30:51.505Z,58.33
2023-11-28T10:33:19.827Z,58.49
2023-11-28T10:35:46.704Z,58.81
2023-11-28T10:38:18.021Z,58.67
2023-11-28T10:40:51.495Z,58.49
2023-11-28T10:43:18.450Z,58.75
2023-11-28T10:45:46.313Z,58.67
2023-11-28T10:48:14.171Z,58.88
2023-11-28T10:50:44.505Z,58.78
2023-11-28T10:53:15.122Z,58.62
2023-11-28T10:55:54.671Z,58.82
2023-11-28T10:58:22.700Z,58.83
2023-11-28T11:00:56.319Z,58.70
2023-11-28T11:03:26.973Z,58.78
2023-11-28T11:05:55.806Z,58.68
2023-11-28T11:08:30.645Z,58.69
2023-11-28T11:10:57.696Z,58.69
2023-11-28T11:13:41.155Z,58.88
2023-11-28T11:16:16.705Z,58.96
2023-11-28T11:18:47.835Z,58.72
2023-11-28T11:21:24.294Z,58.97
2023-11-28T11:23:57.731Z,58.92
2023-11-28T11:26:36.388Z,58.74
2023-11-28T11:29:04.926Z,58.93
2023-11-28T11:31:31.501Z,58.97
2023-11-28T11:33:58.041Z,58.84
2023-11-28T11:36:25.970Z,58.79
2023-11-28T11:38:53.357Z,58.87
2023-11-28T11:41:20.151Z,58.47
2023-11-28T11:43:46.904Z,58.61
2023-11-28T11:46:18.324Z,58.57
2023-11-28T11:48:45.320Z,58.51
2023-11-28T11:51:12.031Z,58.58
2023-11-28T11:53:43.674Z,58.46
2023-11-28T11:56:11.035Z,58.80
2023-11-28T11:58:38.066Z,58.57
2023-11-28T12:01:05.439Z,58.61
2023-11-28T12:03:32.124Z,58.67
2023-11-28T12:05:59.466Z,58.56
2023-11-28T12:08:27.789Z,58.72
2023-11-28T12:11:10.248Z,58.68
2023-11-28T12:13:38.059Z,58.62
2023-11-28T12:16:05.259Z,58.33
2023-11-28T12:18:32.424Z,58.20
2023-11-28T12:21:01.542Z,58.39
2023-11-28T12:23:29.315Z,58.23
2023-11-28T12:25:57.533Z,58.07
2023-11-28T12:28:24.167Z,58.11
2023-11-28T12:30:51.253Z,58.08
2023-11-28T12:33:17.891Z,58.02
2023-11-28T12:35:48.580Z,57.92
2023-11-28T12:38:15.154Z,58.33
2023-11-28T12:40:46.987Z,57.90
2023-11-28T12:43:23.052Z,58.30
2023-11-28T12:45:52.964Z,58.24
2023-11-28T12:48:20.315Z,57.99
2023-11-28T12:50:51.446Z,58.17
2023-11-28T12:53:21.230Z,58.12
2023-11-28T12:55:48.630Z,58.30
2023-11-28T12:58:19.243Z,57.91
2023-11-28T13:00:48.533Z,58.39
2023-11-28T13:03:15.107Z,58.34
2023-11-28T13:05:41.930Z,58.26
2023-11-28T13:08:08.537Z,58.07
2023-11-28T13:10:36.272Z,58.10
2023-11-28T13:13:12.133Z,57.97
2023-11-28T13:15:43.996Z,58.05
2023-11-28T13:18:11.121Z,58.11
2023-11-28T13:20:37.788Z,58.31
2023-11-28T13:23:04.334Z,58.29
2023-11-28T13:25:30.852Z,58.15
2023-11-28T13:27:58.574Z,58.00
2023-11-28T13:30:26.974Z,58.42
2023-11-28T13:32:56.401Z,58.49
2023-11-28T13:35:23.184Z,58.50
2023-11-28T13:37:51.344Z,58.41
2023-11-28T13:40:17.852Z,58.41
2023-11-28T13:42:46.039Z,58.41
2023-11-28T13:45:13.913Z,58.76
2023-11-28T13:47:40.564Z,58.69
2023-11-28T13:50:10.561Z,58.69
2023-11-28T13:52:38.071Z,59.21
2023-11-28T13:55:05.628Z,59.23
2023-11-28T13:57:32.092Z,59.18
2023-11-28T13:59:58.625Z,59.12
2023-11-28T14:02:35.223Z,58.89
2023-11-28T14:05:10.038Z,58.52
2023-11-28T14:07:39.145Z,58.58
2023-11-28T14:10:06.791Z,58.59
2023-11-28T14:12:34.384Z,58.35
2023-11-28T14:15:01.352Z,58.28
2023-11-28T14:17:28.061Z,58.21
2023-11-28T14:19:56.352Z,58.36
2023-11-28T14:22:25.075Z,58.35
2023-11-28T14:24:51.833Z,57.98
2023-11-28T14:27:18.332Z,58.09
2023-11-28T14:29:45.700Z,58.37
2023-11-28T14:32:39.029Z,58.59
2023-11-28T14:35:07.021Z,58.24
2023-11-28T14:37:36.427Z,58.47
2023-11-28T14:40:09.201Z,58.43
2023-11-28T14:42:39.465Z,58.25
2023-11-28T14:45:08.352Z,58.16
2023-11-28T14:47:35.809Z,58.62
2023-11-28T14:50:06.257Z,58.40
2023-11-28T14:52:32.793Z,58.50
2023-11-28T14:54:59.236Z,58.54
2023-11-28T14:57:25.876Z,58.85
2023-11-28T14:59:52.434Z,58.64
2023-11-28T15:02:19.634Z,58.77
2023-11-28T15:04:46.289Z,58.88
2023-11-28T15:07:12.803Z,58.85
2023-11-28T15:09:39.563Z,58.56
2023-11-28T15:12:06.372Z,58.68
2023-11-28T15:14:32.994Z,58.38
2023-11-28T15:17:00.847Z,58.75
2023-11-28T15:19:28.641Z,58.59
2023-11-28T15:21:55.203Z,58.63
2023-11-28T15:24:21.753Z,58.34
2023-11-28T15:26:50.070Z,58.69
2023-11-28T15:29:16.997Z,58.69
2023-11-28T15:31:43.522Z,58.46
2023-11-28T15:34:12.418Z,58.27
2023-11-28T15:36:38.981Z,58.76
2023-11-28T15:39:14.216Z,58.55
2023-11-28T15:41:40.801Z,58.41
2023-11-28T15:44:07.336Z,58.33
2023-11-28T15:46:33.815Z,58.75
2023-11-28T15:49:00.290Z,58.70
2023-11-28T15:51:34.985Z,58.43
2023-11-28T15:54:07.888Z,58.41
2023-11-28T15:56:34.537Z,58.59
2023-11-28T15:59:01.292Z,58.41
2023-11-28T16:01:27.934Z,58.50
2023-11-28T16:03:54.532Z,58.51
2023-11-28T16:06:21.814Z,58.44
2023-11-28T16:08:48.412Z,58.76
2023-11-28T16:11:15.161Z,58.51
2023-11-28T16:13:42.260Z,58.73
2023-11-28T16:16:18.587Z,58.92
2023-11-28T16:18:45.102Z,58.79
2023-11-28T16:21:11.901Z,58.67
2023-11-28T16:23:38.489Z,58.89
2023-11-28T16:26:05.348Z,58.71
2023-11-28T16:28:33.227Z,58.66
2023-11-28T16:31:00.393Z,58.94
2023-11-28T16:33:26.941Z,58.69
2023-11-28T16:35:55.384Z,58.70
2023-11-28T16:38:23.272Z,58.96
2023-11-28T16:40:49.964Z,59.22
2023-11-28T16:43:16.625Z,58.73
2023-11-28T16:45:43.936Z,58.82
2023-11-28T16:48:10.699Z,59.38
2023-11-28T16:50:37.633Z,58.96
2023-11-28T16:53:04.143Z,59.05
2023-11-28T16:55:33.072Z,59.09
2023-11-28T16:57:59.580Z,59.24
2023-11-28T17:00:28.641Z,59.15
2023-11-28T17:02:55.369Z,59.13
2023-11-28T17:05:22.016Z,59.00
2023-11-28T17:07:49.131Z,59.38
2023-11-28T17:10:17.099Z,58.98
2023-11-28T17:12:46.628Z,59.39
2023-11-28T17:15:13.500Z,59.41
2023-11-28T17:17:40.108Z,59.36
2023-11-28T17:20:08.084Z,59.36
2023-11-28T17:22:34.747Z,59.37
2023-11-28T17:25:01.228Z,59.38
2023-11-28T17:27:27.677Z,59.09
2023-11-28T17:29:54.125Z,59.44
2023-11-28T17:32:20.667Z,59.19
2023-11-28T17:34:50.203Z,59.23
2023-11-28T17:37:16.714Z,59.40
2023-11-28T17:39:43.706Z,59.51
2023-11-28T17:42:10.744Z,59.49
2023-11-28T17:44:37.536Z,59.31
2023-11-28T17:47:04.492Z,59.55
2023-11-28T17:49:31.092Z,59.17
2023-11-28T17:51:57.656Z,59.43
2023-11-28T17:54:25.117Z,59.44
2023-11-28T17:56:51.656Z,59.42
2023-11-28T17:59:19.498Z,59.23
2023-11-28T18:01:46.124Z,59.33
2023-11-28T18:04:13.374Z,59.46
2023-11-28T18:06:40.629Z,59.47
2023-11-28T18:09:08.706Z,59.34
2023-11-28T18:11:35.295Z,59.59
2023-11-28T18:14:02.483Z,59.54
2023-11-28T18:16:28.912Z,59.72
2023-11-28T18:18:57.521Z,59.48
2023-11-28T18:21:27.839Z,59.73
2023-11-28T18:23:55.190Z,59.67
2023-11-28T18:26:21.697Z,59.56
2023-11-28T18:28:48.289Z,59.53
2023-11-28T18:31:15.047Z,59.52
2023-11-28T18:33:41.636Z,59.36
2023-11-28T18:36:09.414Z,59.82
2023-11-28T18:38:40.718Z,59.61
2023-11-28T18:41:14.635Z,59.74
2023-11-28T18:43:42.125Z,59.63
2023-11-28T18:46:13.985Z,59.70
2023-11-28T18:48:43.912Z,59.83
2023-11-28T18:51:20.704Z,59.70
2023-11-28T18:53:47.361Z,59.56
2023-11-28T18:56:24.914Z,59.73
2023-11-28T18:58:51.575Z,59.51
2023-11-28T19:01:20.066Z,59.77
2023-11-28T19:03:47.888Z,59.66
2023-11-28T19:06:15.143Z,59.91
2023-11-28T19:08:42.544Z,59.57
2023-11-28T19:11:11.728Z,59.70
2023-11-28T19:13:38.734Z,59.93
2023-11-28T19:16:06.715Z,59.88
2023-11-28T19:18:33.753Z,59.46
2023-11-28T19:21:01.088Z,59.72
2023-11-28T19:23:27.959Z,59.90
2023-11-28T19:25:54.470Z,59.62
2023-11-28T19:28:21.021Z,59.76
2023-11-28T19:30:47.537Z,59.50
2023-11-28T19:33:15.068Z,59.21
2023-11-28T19:35:41.587Z,59.71
2023-11-28T19:38:08.264Z,60.12
2023-11-28T19:40:35.081Z,59.80
2023-11-28T19:43:02.565Z,59.49
2023-11-28T19:45:29.085Z,59.51
2023-11-28T19:47:57.664Z,59.80
2023-11-28T19:50:25.522Z,59.72
2023-11-28T19:52:53.116Z,59.61
2023-11-28T19:55:19.613Z,59.51
2023-11-28T19:57:46.188Z,59.79
2023-11-28T20:00:13.415Z,59.89
2023-11-28T20:02:40.021Z,59.65
2023-11-28T20:05:07.558Z,59.62
2023-11-28T20:07:34.270Z,59.54
2023-11-28T20:10:00.959Z,59.35
2023-11-28T20:12:30.329Z,59.51
2023-11-28T20:14:56.792Z,59.52
2023-11-28T20:17:24.776Z,59.70
2023-11-28T20:19:51.276Z,59.84
2023-11-28T20:22:18.444Z,59.62
2023-11-28T20:24:44.928Z,60.02
2023-11-28T20:27:11.612Z,59.70
2023-11-28T20:29:39.309Z,59.66
2023-11-28T20:32:11.359Z,59.63
2023-11-28T20:34:38.333Z,59.72
2023-11-28T20:37:17.944Z,59.60
2023-11-28T20:39:46.225Z,59.62
2023-11-28T20:42:12.879Z,59.43
2023-11-28T20:44:39.443Z,59.92
2023-11-28T20:47:06.109Z,59.83
2023-11-28T20:49:32.620Z,59.66
2023-11-28T20:51:59.731Z,59.80
2023-11-28T20:54:26.928Z,59.52
2023-11-28T20:56:55.669Z,59.77
2023-11-28T20:59:22.322Z,59.81
2023-11-28T21:01:50.223Z,59.58
2023-11-28T21:04:16.934Z,59.78
2023-11-28T21:06:43.712Z,59.81
2023-11-28T21:09:11.189Z,59.40
2023-11-28T21:11:37.796Z,59.43
2023-11-28T21:14:04.364Z,59.82
2023-11-28T21:16:30.949Z,59.46
2023-11-28T21:18:57.506Z,59.70
2023-11-28T21:21:25.414Z,59.65
2023-11-28T21:23:56.567Z,59.37
2023-11-28T21:26:24.448Z,59.44
2023-11-28T21:28:54.323Z,59.45
2023-11-28T21:31:21.222Z,59.48
2023-11-28T21:33:47.881Z,59.43
2023-11-28T21:36:15.941Z,59.64
2023-11-28T21:38:45.351Z,59.35
2023-11-28T21:41:19.934Z,59.24
2023-11-28T21:43:46.527Z,59.59
2023-11-28T21:46:13.327Z,59.40
2023-11-28T21:48:42.753Z,59.49
2023-11-28T21:51:10.477Z,59.46
2023-11-28T21:53:37.074Z,59.34
2023-11-28T21:56:04.453Z,59.42
2023-11-28T21:58:31.365Z,59.59
2023-11-28T22:00:57.823Z,59.35
2023-11-28T22:03:27.100Z,59.45
2023-11-28T22:05:53.826Z,59.37
2023-11-28T22:08:23.262Z,59.32
2023-11-28T22:10:50.069Z,59.36
2023-11-28T22:13:16.950Z,59.74
2023-11-28T22:15:43.372Z,59.31
2023-11-28T22:18:10.203Z,59.29
2023-11-28T22:20:36.847Z,59.29
2023-11-28T22:23:03.550Z,59.40
2023-11-28T22:25:29.983Z,59.21
2023-11-28T22:27:57.431Z,59.21
2023-11-28T22:30:23.872Z,59.12
2023-11-28T22:32:50.699Z,59.26
2023-11-28T22:35:17.301Z,59.54
2023-11-28T22:37:48.161Z,59.05
2023-11-28T22:40:16.260Z,59.47
2023-11-28T22:42:43.820Z,59.51
2023-11-28T22:45:12.646Z,59.46
2023-11-28T22:47:39.999Z,59.15
2023-11-28T22:50:10.185Z,59.23
2023-11-28T22:52:36.889Z,59.25
2023-11-28T22:55:06.208Z,59.12
2023-11-28T22:57:33.300Z,59.37
2023-11-28T23:00:01.163Z,59.29
2023-11-28T23:02:27.759Z,58.90
2023-11-28T23:04:54.833Z,59.39
2023-11-28T23:07:21.286Z,59.20
2023-11-28T23:09:47.855Z,59.27
2023-11-28T23:12:17.701Z,59.22
2023-11-28T23:14:44.689Z,59.15
2023-11-28T23:17:11.689Z,58.91
2023-11-28T23:19:38.172Z,59.30
2023-11-28T23:22:04.780Z,59.14
2023-11-28T23:24:31.305Z,59.21
2023-11-28T23:26:57.759Z,59.14
2023-11-28T23:29:24.263Z,59.03
2023-11-28T23:31:50.757Z,59.36
2023-11-28T23:34:17.295Z,59.25
2023-11-28T23:36:44.166Z,59.16
2023-11-28T23:39:10.634Z,59.23
2023-11-28T23:41:37.387Z,59.26
2023-11-28T23:44:04.038Z,59.24
2023-11-28T23:46:30.516Z,59.30
2023-11-28T23:49:04.513Z,59.35
2023-11-28T23:51:32.649Z,59.14
2023-11-28T23:53:59.478Z,59.24
2023-11-28T23:56:26.014Z,59.08
2023-11-28T23:58:52.567Z,59.10
